Time;durP1;ratioP1;P1;durP2;ratioP2;P2;SDS_P1;SDS_P2;PMS_P1;PMS_P2;Temp;Humidity;BMP_temperature;BMP_pressure;BME280_temperature;BME280_humidity;BME280_pressure;Samples;Min_cycle;Max_cycle;Signal;HPM_P1;HPM_P2
2022/07/07 00:01:36;;;;;;;10.07;5.60;;;;;;;;;;4916567;29;20024;-63
2022/07/07 00:04:02;;;;;;;8.73;5.43;;;;;;;;;;4916488;29;20107;-67
2022/07/07 00:06:28;;;;;;;9.77;5.95;;;;;;;;;;4916841;29;20103;-62
2022/07/07 00:08:54;;;;;;;7.53;5.68;;;;;;;;;;4916490;29;20032;-63
2022/07/07 00:11:24;;;;;;;9.00;5.47;;;;;;;;;;4916304;29;20119;-62
2022/07/07 00:13:50;;;;;;;8.23;5.82;;;;;;;;;;4915885;29;20137;-67
2022/07/07 00:16:16;;;;;;;11.50;6.03;;;;;;;;;;4916710;29;20028;-67
2022/07/07 00:18:43;;;;;;;9.73;5.75;;;;;;;;;;4916580;29;20116;-62
2022/07/07 00:21:09;;;;;;;8.38;5.75;;;;;;;;;;4916416;29;20024;-67
2022/07/07 00:23:35;;;;;;;9.52;5.63;;;;;;;;;;4916351;29;20032;-62
2022/07/07 00:26:01;;;;;;;12.90;6.00;;;;;;;;;;4916121;29;20122;-67
2022/07/07 00:28:27;;;;;;;10.38;6.43;;;;;;;;;;4916452;29;20024;-68
2022/07/07 00:30:53;;;;;;;11.10;6.63;;;;;;;;;;4916015;29;20024;-62
2022/07/07 00:33:20;;;;;;;13.68;6.55;;;;;;;;;;4916241;29;20032;-67
2022/07/07 00:35:46;;;;;;;12.65;6.82;;;;;;;;;;4916147;29;20024;-66
2022/07/07 00:38:12;;;;;;;16.13;7.07;;;;;;;;;;4916079;29;20119;-63
2022/07/07 00:40:38;;;;;;;9.88;6.90;;;;;;;;;;4915553;29;20032;-62
2022/07/07 00:43:04;;;;;;;12.52;7.20;;;;;;;;;;4915794;29;20095;-62
2022/07/07 00:45:30;;;;;;;10.68;7.57;;;;;;;;;;4916222;29;20381;-62
2022/07/07 00:47:57;;;;;;;11.07;6.45;;;;;;;;;;4915954;29;20028;-62
2022/07/07 00:50:24;;;;;;;16.52;7.10;;;;;;;;;;4915861;29;20039;-63
2022/07/07 00:52:50;;;;;;;11.82;6.60;;;;;;;;;;4915730;29;20392;-62
2022/07/07 00:55:16;;;;;;;10.43;6.10;;;;;;;;;;4915729;29;20084;-62
2022/07/07 00:57:42;;;;;;;11.57;6.65;;;;;;;;;;4915838;29;20055;-67
2022/07/07 01:00:10;;;;;;;10.10;6.05;;;;;;;;;;4915726;29;20408;-66
2022/07/07 01:02:36;;;;;;;10.27;6.15;;;;;;;;;;4915291;29;20040;-62
2022/07/07 01:05:03;;;;;;;13.77;6.65;;;;;;;;;;4915538;29;20036;-62
2022/07/07 01:07:30;;;;;;;11.68;6.20;;;;;;;;;;4915697;29;20020;-65
2022/07/07 01:09:57;;;;;;;9.63;6.10;;;;;;;;;;4915472;29;20032;-63
2022/07/07 01:12:23;;;;;;;15.40;6.65;;;;;;;;;;4915411;29;20024;-65
2022/07/07 01:14:49;;;;;;;9.00;6.03;;;;;;;;;;4915026;29;20147;-67
2022/07/07 01:17:16;;;;;;;11.95;6.07;;;;;;;;;;4915437;29;20465;-62
2022/07/07 01:19:42;;;;;;;14.35;6.53;;;;;;;;;;4915372;29;20083;-62
2022/07/07 01:22:15;;;;;;;12.60;6.43;;;;;;;;;;4915016;29;20111;-68
2022/07/07 01:24:41;;;;;;;9.68;5.97;;;;;;;;;;4915328;29;20449;-63
2022/07/07 01:27:10;;;;;;;11.68;6.47;;;;;;;;;;4915406;29;20051;-62
2022/07/07 01:29:37;;;;;;;11.32;6.18;;;;;;;;;;4915205;29;20036;-68
2022/07/07 01:32:04;;;;;;;9.55;5.57;;;;;;;;;;4915197;29;20032;-61
2022/07/07 01:34:30;;;;;;;10.63;6.25;;;;;;;;;;4915303;29;20025;-62
2022/07/07 01:36:56;;;;;;;9.90;6.32;;;;;;;;;;4915275;29;20400;-61
2022/07/07 01:39:22;;;;;;;11.45;5.30;;;;;;;;;;4915156;29;20477;-62
2022/07/07 01:41:48;;;;;;;11.65;6.05;;;;;;;;;;4914806;29;20076;-61
2022/07/07 01:44:14;;;;;;;11.45;5.88;;;;;;;;;;4914962;29;20119;-61
2022/07/07 01:46:40;;;;;;;11.30;5.72;;;;;;;;;;4915306;29;20024;-66
2022/07/07 01:49:06;;;;;;;10.32;6.00;;;;;;;;;;4914925;29;20039;-62
2022/07/07 01:51:32;;;;;;;11.18;6.00;;;;;;;;;;4915079;29;20032;-62
2022/07/07 01:53:58;;;;;;;10.75;6.05;;;;;;;;;;4915287;29;20064;-61
2022/07/07 01:56:24;;;;;;;12.18;6.45;;;;;;;;;;4915006;29;20032;-62
2022/07/07 01:58:51;;;;;;;10.07;6.55;;;;;;;;;;4915124;29;20093;-67
2022/07/07 02:01:17;;;;;;;9.23;5.72;;;;;;;;;;4915178;29;20016;-61
2022/07/07 02:03:43;;;;;;;9.95;6.43;;;;;;;;;;4916446;29;20044;-63
2022/07/07 02:06:09;;;;;;;10.50;5.80;;;;;;;;;;4915534;29;20439;-66
2022/07/07 02:08:35;;;;;;;7.55;5.95;;;;;;;;;;4914714;29;20115;-61
2022/07/07 02:11:13;;;;;;;8.73;6.47;;;;;;;;;;4914443;29;20031;-65
2022/07/07 02:13:40;;;;;;;10.38;6.30;;;;;;;;;;4914438;29;20032;-62
2022/07/07 02:16:06;;;;;;;10.93;5.75;;;;;;;;;;4897521;29;20123;-63
2022/07/07 02:18:38;;;;;;;9.10;6.15;;;;;;;;;;4914856;29;20563;-62
2022/07/07 02:21:05;;;;;;;9.32;5.78;;;;;;;;;;4914790;29;20394;-62
2022/07/07 02:23:32;;;;;;;12.15;6.20;;;;;;;;;;4914661;29;20095;-62
2022/07/07 02:25:58;;;;;;;8.93;5.82;;;;;;;;;;4914646;29;20101;-62
2022/07/07 02:28:24;;;;;;;9.75;5.45;;;;;;;;;;4914792;29;20036;-63
2022/07/07 02:30:50;;;;;;;10.73;5.88;;;;;;;;;;4914656;29;20038;-58
2022/07/07 02:33:17;;;;;;;10.45;6.32;;;;;;;;;;4917028;29;20043;-58
2022/07/07 02:35:43;;;;;;;9.38;5.93;;;;;;;;;;4918473;29;20032;-63
2022/07/07 02:38:09;;;;;;;8.98;5.82;;;;;;;;;;4918205;29;20111;-57
2022/07/07 02:40:35;;;;;;;14.15;5.93;;;;;;;;;;4918028;29;20079;-58
2022/07/07 02:43:01;;;;;;;6.82;5.10;;;;;;;;;;4918041;29;20032;-62
2022/07/07 02:45:27;;;;;;;9.23;5.32;;;;;;;;;;4917894;29;20032;-58
2022/07/07 02:47:53;;;;;;;6.85;4.53;;;;;;;;;;4918109;29;20032;-58
2022/07/07 02:50:19;;;;;;;6.00;4.70;;;;;;;;;;4918107;29;20039;-57
2022/07/07 02:52:45;;;;;;;9.63;4.55;;;;;;;;;;4918125;29;20051;-58
2022/07/07 02:55:11;;;;;;;9.35;4.93;;;;;;;;;;4918035;29;20028;-59
2022/07/07 02:57:38;;;;;;;9.98;4.80;;;;;;;;;;4917984;29;20032;-57
2022/07/07 03:00:07;;;;;;;7.50;4.50;;;;;;;;;;4917789;29;20087;-58
2022/07/07 03:02:34;;;;;;;8.55;4.55;;;;;;;;;;4917531;29;20362;-58
2022/07/07 03:05:00;;;;;;;6.18;4.43;;;;;;;;;;4917741;29;20481;-58
2022/07/07 03:07:26;;;;;;;7.25;4.40;;;;;;;;;;4917593;29;20495;-59
2022/07/07 03:09:52;;;;;;;8.48;4.90;;;;;;;;;;4917363;29;20028;-58
2022/07/07 03:12:18;;;;;;;10.45;5.18;;;;;;;;;;4917363;29;20047;-60
2022/07/07 03:14:44;;;;;;;8.52;5.22;;;;;;;;;;4917245;29;20046;-58
2022/07/07 03:17:10;;;;;;;6.50;4.95;;;;;;;;;;4917484;29;20047;-59
2022/07/07 03:19:36;;;;;;;10.02;5.57;;;;;;;;;;4917787;29;20087;-58
2022/07/07 03:22:03;;;;;;;7.53;5.38;;;;;;;;;;4917383;29;20024;-60
2022/07/07 03:24:31;;;;;;;10.27;5.88;;;;;;;;;;4917236;29;20551;-60
2022/07/07 03:26:58;;;;;;;11.80;6.18;;;;;;;;;;4917249;29;20032;-65
2022/07/07 03:29:25;;;;;;;11.05;6.00;;;;;;;;;;4917349;29;20032;-64
2022/07/07 03:31:51;;;;;;;7.82;5.22;;;;;;;;;;4917051;29;20020;-59
2022/07/07 03:34:17;;;;;;;10.23;5.32;;;;;;;;;;4917238;29;20238;-59
2022/07/07 03:36:43;;;;;;;9.95;6.03;;;;;;;;;;4917298;29;20060;-59
2022/07/07 03:39:09;;;;;;;10.48;6.30;;;;;;;;;;4916955;29;20035;-64
2022/07/07 03:41:35;;;;;;;7.90;5.25;;;;;;;;;;4916547;29;20463;-58
2022/07/07 03:44:01;;;;;;;9.18;4.78;;;;;;;;;;4916141;29;20512;-58
2022/07/07 03:46:27;;;;;;;5.97;4.80;;;;;;;;;;4916836;29;20059;-57
2022/07/07 03:48:53;;;;;;;7.47;5.15;;;;;;;;;;4917140;29;20028;-57
2022/07/07 03:51:19;;;;;;;5.65;4.75;;;;;;;;;;4916953;29;20032;-57
2022/07/07 03:53:45;;;;;;;7.00;4.70;;;;;;;;;;4916728;29;20393;-58
2022/07/07 03:56:11;;;;;;;6.95;4.95;;;;;;;;;;4916635;29;20095;-59
2022/07/07 03:58:38;;;;;;;6.82;4.53;;;;;;;;;;4916481;29;20363;-58
2022/07/07 04:01:04;;;;;;;9.55;4.95;;;;;;;;;;4916924;29;20111;-58
2022/07/07 04:03:30;;;;;;;7.20;4.90;;;;;;;;;;4916467;29;20075;-59
2022/07/07 04:05:56;;;;;;;7.97;4.35;;;;;;;;;;4916387;29;20028;-57
2022/07/07 04:08:22;;;;;;;9.52;4.20;;;;;;;;;;4917107;29;20028;-60
2022/07/07 04:10:48;;;;;;;8.68;5.85;;;;;;;;;;4916397;29;20503;-61
2022/07/07 04:13:14;;;;;;;9.07;4.78;;;;;;;;;;4916437;29;20055;-61
2022/07/07 04:15:40;;;;;;;5.70;4.25;;;;;;;;;;4916103;29;20048;-59
2022/07/07 04:18:06;;;;;;;7.30;4.10;;;;;;;;;;4916408;29;20626;-58
2022/07/07 04:20:32;;;;;;;8.77;4.10;;;;;;;;;;4916445;29;20020;-63
2022/07/07 04:22:59;;;;;;;9.07;4.00;;;;;;;;;;4916108;29;20085;-59
2022/07/07 04:25:25;;;;;;;5.63;3.70;;;;;;;;;;4916204;29;20032;-62
2022/07/07 04:27:51;;;;;;;5.95;3.97;;;;;;;;;;4916365;29;20035;-59
2022/07/07 04:30:17;;;;;;;7.68;3.72;;;;;;;;;;4916107;29;20491;-61
2022/07/07 04:32:43;;;;;;;6.38;3.55;;;;;;;;;;4916086;29;20024;-59
2022/07/07 04:35:09;;;;;;;6.53;3.80;;;;;;;;;;4916133;29;20043;-60
2022/07/07 04:37:36;;;;;;;7.82;3.80;;;;;;;;;;4916114;29;20103;-58
2022/07/07 04:40:03;;;;;;;7.75;3.38;;;;;;;;;;4915876;29;20545;-65
2022/07/07 04:42:29;;;;;;;6.60;3.30;;;;;;;;;;4915708;29;20096;-58
2022/07/07 04:44:56;;;;;;;9.20;3.15;;;;;;;;;;4915810;29;20131;-58
2022/07/07 04:47:22;;;;;;;8.15;2.92;;;;;;;;;;4915948;29;20036;-59
2022/07/07 04:49:48;;;;;;;6.10;2.95;;;;;;;;;;4915729;29;20032;-64
2022/07/07 04:52:14;;;;;;;5.57;3.20;;;;;;;;;;4915874;29;20088;-59
2022/07/07 04:54:40;;;;;;;4.88;3.00;;;;;;;;;;4916004;29;20348;-58
2022/07/07 04:57:06;;;;;;;6.13;3.08;;;;;;;;;;4914973;29;20541;-58
2022/07/07 04:59:32;;;;;;;6.18;2.70;;;;;;;;;;4915773;29;20035;-61
2022/07/07 05:01:58;;;;;;;7.53;2.60;;;;;;;;;;4915406;29;20029;-59
2022/07/07 05:04:24;;;;;;;7.47;2.72;;;;;;;;;;4915538;29;20532;-62
2022/07/07 05:06:50;;;;;;;6.85;2.55;;;;;;;;;;4915276;29;20469;-62
2022/07/07 05:09:16;;;;;;;5.05;2.40;;;;;;;;;;4915556;29;20036;-58
2022/07/07 05:11:42;;;;;;;5.65;2.47;;;;;;;;;;4915033;29;20028;-61
2022/07/07 05:14:08;;;;;;;4.25;2.35;;;;;;;;;;4915050;29;20044;-59
2022/07/07 05:16:34;;;;;;;9.27;3.10;;;;;;;;;;4915033;29;20385;-67
2022/07/07 05:19:01;;;;;;;10.10;2.95;;;;;;;;;;4915484;29;20117;-64
2022/07/07 05:21:27;;;;;;;5.95;2.22;;;;;;;;;;4915400;29;20031;-68
2022/07/07 05:23:53;;;;;;;6.80;2.55;;;;;;;;;;4914922;29;20429;-62
2022/07/07 05:26:19;;;;;;;4.95;2.33;;;;;;;;;;4915275;29;20111;-63
2022/07/07 05:28:46;;;;;;;4.70;2.38;;;;;;;;;;4915420;29;20032;-63
2022/07/07 05:31:13;;;;;;;5.00;2.42;;;;;;;;;;4915282;29;20425;-63
2022/07/07 05:33:39;;;;;;;6.90;2.10;;;;;;;;;;4915348;29;20028;-63
2022/07/07 05:36:06;;;;;;;3.40;2.00;;;;;;;;;;4903559;29;20381;-62
2022/07/07 05:38:32;;;;;;;6.97;2.40;;;;;;;;;;4901165;29;20067;-63
2022/07/07 05:40:58;;;;;;;4.50;2.00;;;;;;;;;;4899815;29;20174;-64
2022/07/07 05:43:25;;;;;;;7.78;2.05;;;;;;;;;;4905068;29;20033;-66
2022/07/07 05:45:52;;;;;;;5.13;2.10;;;;;;;;;;4898600;29;20067;-67
2022/07/07 05:48:18;;;;;;;4.20;2.00;;;;;;;;;;4894953;29;20528;-65
2022/07/07 05:50:44;;;;;;;4.70;1.83;;;;;;;;;;4895541;29;20035;-62
2022/07/07 05:53:11;;;;;;;7.15;1.80;;;;;;;;;;4895262;29;20024;-61
2022/07/07 05:55:37;;;;;;;6.18;2.15;;;;;;;;;;4894687;29;20230;-62
2022/07/07 05:58:03;;;;;;;3.55;2.03;;;;;;;;;;4894830;29;20025;-61
2022/07/07 06:00:30;;;;;;;3.88;2.15;;;;;;;;;;4899996;29;20032;-61
2022/07/07 06:02:56;;;;;;;7.15;2.40;;;;;;;;;;4896016;29;20037;-62
2022/07/07 06:05:22;;;;;;;5.78;3.22;;;;;;;;;;4896123;29;20016;-61
2022/07/07 06:07:49;;;;;;;6.97;2.35;;;;;;;;;;4897657;29;20039;-62
2022/07/07 06:10:15;;;;;;;8.07;2.40;;;;;;;;;;4899803;29;20116;-61
2022/07/07 06:12:42;;;;;;;5.93;2.70;;;;;;;;;;4899602;29;20037;-61
2022/07/07 06:15:08;;;;;;;4.45;2.30;;;;;;;;;;4899494;29;20068;-68
2022/07/07 06:17:34;;;;;;;10.45;2.83;;;;;;;;;;4899317;29;20129;-61
2022/07/07 06:20:00;;;;;;;10.45;2.50;;;;;;;;;;4899603;29;20032;-64
2022/07/07 06:22:26;;;;;;;7.35;2.58;;;;;;;;;;4899691;29;20028;-64
2022/07/07 06:24:53;;;;;;;10.32;2.40;;;;;;;;;;4899419;29;20040;-62
2022/07/07 06:27:19;;;;;;;9.30;3.35;;;;;;;;;;4899355;29;20115;-61
2022/07/07 06:29:45;;;;;;;5.40;2.30;;;;;;;;;;4899515;29;20037;-62
2022/07/07 06:32:14;;;;;;;9.27;3.08;;;;;;;;;;4899259;29;20033;-62
2022/07/07 06:34:40;;;;;;;8.20;2.72;;;;;;;;;;4899565;29;20029;-62
2022/07/07 06:37:06;;;;;;;5.43;2.60;;;;;;;;;;4899219;29;20032;-65
2022/07/07 06:39:32;;;;;;;5.55;2.70;;;;;;;;;;4899555;29;20119;-62
2022/07/07 06:41:58;;;;;;;4.55;2.70;;;;;;;;;;4899088;29;20024;-63
2022/07/07 06:44:30;;;;;;;6.75;2.38;;;;;;;;;;4899117;29;20048;-63
2022/07/07 06:46:56;;;;;;;;;;;;;;;;;;4899487;29;20465;-63
2022/07/07 06:49:22;;;;;;;5.53;2.80;;;;;;;;;;4899328;29;19964;-63
2022/07/07 06:51:48;;;;;;;5.85;2.80;;;;;;;;;;4899355;29;20033;-63
2022/07/07 06:54:14;;;;;;;4.65;2.97;;;;;;;;;;4899358;29;20111;-62
2022/07/07 06:56:40;;;;;;;6.82;2.70;;;;;;;;;;4898969;29;20032;-63
2022/07/07 06:59:06;;;;;;;6.32;2.53;;;;;;;;;;4898954;29;20028;-62
2022/07/07 07:01:32;;;;;;;4.75;2.40;;;;;;;;;;4898772;29;20116;-67
2022/07/07 07:03:58;;;;;;;6.82;2.92;;;;;;;;;;4898945;29;20080;-62
2022/07/07 07:06:25;;;;;;;4.20;2.40;;;;;;;;;;4898878;29;20454;-61
2022/07/07 07:08:51;;;;;;;5.25;2.35;;;;;;;;;;4898495;29;20516;-66
2022/07/07 07:11:17;;;;;;;6.85;2.83;;;;;;;;;;4898607;29;20084;-63
2022/07/07 07:13:47;;;;;;;8.90;2.70;;;;;;;;;;4898515;29;20043;-63
2022/07/07 07:16:13;;;;;;;9.18;2.90;;;;;;;;;;4898521;29;20115;-62
2022/07/07 07:18:39;;;;;;;5.57;2.70;;;;;;;;;;4898010;29;20036;-66
2022/07/07 07:21:05;;;;;;;8.85;2.70;;;;;;;;;;4897948;29;20036;-63
2022/07/07 07:23:31;;;;;;;7.43;2.83;;;;;;;;;;4898241;29;20111;-66
2022/07/07 07:25:57;;;;;;;6.22;2.63;;;;;;;;;;4897827;29;20024;-63
2022/07/07 07:28:23;;;;;;;5.95;2.90;;;;;;;;;;4898297;29;20028;-62
2022/07/07 07:30:49;;;;;;;8.18;2.50;;;;;;;;;;4898545;29;20025;-62
2022/07/07 07:33:16;;;;;;;9.90;3.00;;;;;;;;;;4885579;29;20036;-69
2022/07/07 07:35:42;;;;;;;5.03;2.50;;;;;;;;;;4899537;29;20024;-62
2022/07/07 07:38:08;;;;;;;9.73;3.63;;;;;;;;;;4898163;29;20063;-68
2022/07/07 07:40:34;;;;;;;9.85;3.10;;;;;;;;;;4898678;29;20041;-61
2022/07/07 07:43:01;;;;;;;5.93;2.90;;;;;;;;;;4897507;29;20060;-67
2022/07/07 07:45:27;;;;;;;4.82;2.85;;;;;;;;;;4897909;29;20067;-61
2022/07/07 07:47:53;;;;;;;3.85;2.70;;;;;;;;;;4897867;29;20052;-62
2022/07/07 07:50:20;;;;;;;8.23;3.50;;;;;;;;;;4897681;29;20104;-67
2022/07/07 07:52:46;;;;;;;6.28;2.97;;;;;;;;;;4897910;29;20389;-65
2022/07/07 07:55:14;;;;;;;4.82;2.42;;;;;;;;;;4898042;29;20505;-61
2022/07/07 07:57:41;;;;;;;6.97;2.75;;;;;;;;;;4897621;29;20159;-61
2022/07/07 08:00:08;;;;;;;4.50;2.90;;;;;;;;;;4898044;29;20038;-67
2022/07/07 08:02:34;;;;;;;7.20;3.13;;;;;;;;;;4897572;29;20031;-62
2022/07/07 08:05:01;;;;;;;4.82;2.80;;;;;;;;;;4897656;29;20035;-68
2022/07/07 08:07:27;;;;;;;7.13;3.10;;;;;;;;;;4897728;29;20384;-69
2022/07/07 08:09:53;;;;;;;4.85;2.83;;;;;;;;;;4897675;29;20039;-64
2022/07/07 08:12:22;;;;;;;7.68;2.80;;;;;;;;;;4897247;29;20075;-61
2022/07/07 08:14:49;;;;;;;6.30;2.63;;;;;;;;;;4898564;29;20396;-61
2022/07/07 08:17:15;;;;;;;7.07;3.00;;;;;;;;;;4897493;29;20118;-69
2022/07/07 08:19:41;;;;;;;7.63;2.35;;;;;;;;;;4897916;29;20396;-61
2022/07/07 08:22:07;;;;;;;6.13;3.10;;;;;;;;;;4897701;29;20465;-69
2022/07/07 08:24:33;;;;;;;8.75;3.10;;;;;;;;;;4897416;29;20044;-62
2022/07/07 08:26:59;;;;;;;7.10;2.70;;;;;;;;;;4896859;29;20036;-71
2022/07/07 08:29:25;;;;;;;5.90;2.20;;;;;;;;;;4897040;29;20035;-70
2022/07/07 08:31:51;;;;;;;9.27;2.53;;;;;;;;;;4896997;29;20033;-70
2022/07/07 08:34:17;;;;;;;5.10;2.50;;;;;;;;;;4897294;29;20036;-70
2022/07/07 08:36:45;;;;;;;6.55;3.00;;;;;;;;;;4896829;29;20052;-71
2022/07/07 08:39:11;;;;;;;5.88;2.50;;;;;;;;;;4896798;29;20067;-69
2022/07/07 08:41:37;;;;;;;8.52;2.42;;;;;;;;;;4896731;29;20035;-68
2022/07/07 08:44:03;;;;;;;5.57;2.63;;;;;;;;;;4895822;29;20048;-60
2022/07/07 08:46:29;;;;;;;6.28;2.58;;;;;;;;;;4896832;29;20040;-61
2022/07/07 08:48:56;;;;;;;4.47;2.60;;;;;;;;;;4896985;29;20029;-69
2022/07/07 08:51:22;;;;;;;6.20;2.55;;;;;;;;;;4896711;29;20063;-61
2022/07/07 08:53:48;;;;;;;6.72;2.60;;;;;;;;;;4896993;29;20036;-66
2022/07/07 08:56:16;;;;;;;10.85;2.97;;;;;;;;;;4896869;29;20077;-60
2022/07/07 08:58:43;;;;;;;6.03;2.38;;;;;;;;;;4896925;29;20028;-63
2022/07/07 09:01:09;;;;;;;6.97;2.47;;;;;;;;;;4896436;29;20025;-61
2022/07/07 09:03:35;;;;;;;4.25;2.60;;;;;;;;;;4896568;29;20044;-61
2022/07/07 09:06:02;;;;;;;3.70;2.42;;;;;;;;;;4896696;29;20452;-60
2022/07/07 09:08:29;;;;;;;5.28;2.85;;;;;;;;;;4896639;29;20088;-69
2022/07/07 09:10:56;;;;;;;4.38;2.47;;;;;;;;;;4896594;29;20033;-66
2022/07/07 09:13:26;;;;;;;7.65;2.90;;;;;;;;;;4896336;29;20045;-61
2022/07/07 09:15:57;;;;;;;4.40;2.60;;;;;;;;;;4896138;29;20139;-61
2022/07/07 09:18:34;;;;;;;6.90;3.10;;;;;;;;;;4896239;29;20033;-61
2022/07/07 09:21:01;;;;;;;4.55;2.78;;;;;;;;;;4896488;29;20104;-61
2022/07/07 09:23:27;;;;;;;3.67;2.35;;;;;;;;;;4896503;29;20040;-61
2022/07/07 09:25:54;;;;;;;6.72;2.45;;;;;;;;;;4896373;29;20381;-68
2022/07/07 09:28:20;;;;;;;6.25;2.38;;;;;;;;;;4896406;29;20037;-61
2022/07/07 09:30:47;;;;;;;2.92;1.98;;;;;;;;;;4896308;29;20088;-61
2022/07/07 09:33:19;;;;;;;3.15;2.10;;;;;;;;;;4896022;29;20028;-61
2022/07/07 09:38:31;;;;;;;3.00;1.90;;;;;;;;;;4895947;29;19914;-60
2022/07/07 09:41:01;;;;;;;4.90;2.00;;;;;;;;;;4896314;29;20029;-62
2022/07/07 09:43:28;;;;;;;5.72;2.00;;;;;;;;;;4895314;29;20040;-62
2022/07/07 09:46:09;;;;;;;4.25;1.70;;;;;;;;;;4896118;29;20064;-62
2022/07/07 09:48:36;;;;;;;2.35;1.80;;;;;;;;;;4896028;29;20029;-62
2022/07/07 09:51:11;;;;;;;2.55;1.88;;;;;;;;;;4896172;29;20032;-65
2022/07/07 09:53:56;;;;;;;3.42;1.80;;;;;;;;;;4895992;29;20106;-60
2022/07/07 09:56:27;;;;;;;3.15;1.77;;;;;;;;;;4895518;29;20465;-60
2022/07/07 09:58:53;;;;;;;2.90;2.00;;;;;;;;;;4896203;29;20031;-61
2022/07/07 10:01:24;;;;;;;4.22;2.42;;;;;;;;;;4896035;29;20040;-63
2022/07/07 10:03:52;;;;;;;3.83;2.20;;;;;;;;;;4895424;29;20044;-61
2022/07/07 10:06:18;;;;;;;4.88;2.15;;;;;;;;;;4895723;29;20024;-65
2022/07/07 10:08:45;;;;;;;3.25;2.00;;;;;;;;;;4895841;29;20128;-61
2022/07/07 10:11:14;;;;;;;3.30;2.15;;;;;;;;;;4895587;29;20489;-66
2022/07/07 10:13:43;;;;;;;4.80;1.77;;;;;;;;;;4895509;29;20036;-67
2022/07/07 10:16:10;;;;;;;5.60;2.03;;;;;;;;;;4895683;29;20080;-61
2022/07/07 10:18:36;;;;;;;4.43;2.15;;;;;;;;;;4895919;29;20060;-62
2022/07/07 10:21:02;;;;;;;2.85;1.83;;;;;;;;;;4895714;29;20033;-62
2022/07/07 10:23:29;;;;;;;5.60;1.88;;;;;;;;;;4895692;29;20131;-61
2022/07/07 10:26:07;;;;;;;2.50;1.75;;;;;;;;;;4895862;29;20037;-61
2022/07/07 10:28:52;;;;;;;3.80;1.80;;;;;;;;;;4895871;29;20085;-68
2022/07/07 10:31:31;;;;;;;2.67;1.60;;;;;;;;;;4895744;29;20033;-65
2022/07/07 10:34:04;;;;;;;3.58;2.00;;;;;;;;;;4895524;29;20025;-67
2022/07/07 10:36:48;;;;;;;6.28;1.90;;;;;;;;;;4895700;29;20036;-67
2022/07/07 10:39:14;;;;;;;3.63;1.75;;;;;;;;;;4895501;29;20033;-61
2022/07/07 10:41:41;;;;;;;5.10;2.22;;;;;;;;;;4895336;29;20052;-61
2022/07/07 10:44:09;;;;;;;3.80;1.73;;;;;;;;;;4895527;29;20401;-61
2022/07/07 10:46:36;;;;;;;5.05;1.67;;;;;;;;;;4895794;29;20442;-62
2022/07/07 10:49:09;;;;;;;3.83;1.88;;;;;;;;;;4895782;29;20029;-61
2022/07/07 10:51:50;;;;;;;2.30;1.60;;;;;;;;;;4895491;29;20027;-69
2022/07/07 10:54:16;;;;;;;3.85;1.90;;;;;;;;;;4897386;29;20056;-61
2022/07/07 10:56:51;;;;;;;2.72;1.60;;;;;;;;;;4899085;29;20389;-61
2022/07/07 10:59:18;;;;;;;2.90;1.25;;;;;;;;;;4899122;29;20047;-61
2022/07/07 11:02:02;;;;;;;2.53;1.30;;;;;;;;;;4898550;29;20024;-62
2022/07/07 11:04:45;;;;;;;1.88;1.25;;;;;;;;;;4898703;29;20112;-61
2022/07/07 11:07:12;;;;;;;6.28;1.55;;;;;;;;;;4898594;29;20052;-61
2022/07/07 11:10:00;;;;;;;3.60;1.20;;;;;;;;;;4898898;29;20120;-64
2022/07/07 11:12:36;;;;;;;3.17;1.17;;;;;;;;;;4898389;29;20112;-67
2022/07/07 11:15:20;;;;;;;3.38;1.30;;;;;;;;;;4897997;29;20067;-61
2022/07/07 11:17:47;;;;;;;4.32;1.15;;;;;;;;;;4898483;29;20060;-63
2022/07/07 11:20:14;;;;;;;1.83;1.30;;;;;;;;;;4898433;29;20033;-61
2022/07/07 11:22:47;;;;;;;2.33;1.35;;;;;;;;;;4898217;29;20029;-62
2022/07/07 11:25:14;;;;;;;2.92;1.48;;;;;;;;;;4898573;29;20493;-62
2022/07/07 11:27:40;;;;;;;2.25;1.50;;;;;;;;;;4898276;29;20037;-62
2022/07/07 11:30:07;;;;;;;4.70;1.40;;;;;;;;;;4898375;29;20043;-61
2022/07/07 11:32:37;;;;;;;2.00;1.38;;;;;;;;;;4881477;29;20024;-65
2022/07/07 11:35:06;;;;;;;2.05;1.38;;;;;;;;;;4898347;29;20029;-61
2022/07/07 11:37:33;;;;;;;3.20;1.40;;;;;;;;;;4898186;29;20104;-68
2022/07/07 11:39:59;;;;;;;3.70;1.50;;;;;;;;;;4898403;29;20028;-62
2022/07/07 11:42:34;;;;;;;3.17;1.20;;;;;;;;;;4897721;29;20060;-62
2022/07/07 11:45:00;;;;;;;2.95;1.27;;;;;;;;;;4898126;29;20044;-62
2022/07/07 11:47:26;;;;;;;2.78;1.48;;;;;;;;;;4897901;29;20036;-62
2022/07/07 11:49:53;;;;;;;3.85;1.95;;;;;;;;;;4898030;29;20044;-62
2022/07/07 11:52:21;;;;;;;3.47;1.85;;;;;;;;;;4897788;29;20061;-62
2022/07/07 11:54:48;;;;;;;4.38;1.60;;;;;;;;;;4898098;29;20493;-66
2022/07/07 11:57:30;;;;;;;4.72;1.50;;;;;;;;;;4897771;29;20025;-70
2022/07/07 12:00:12;;;;;;;4.43;1.48;;;;;;;;;;4897908;29;20035;-62
2022/07/07 12:02:39;;;;;;;3.45;1.60;;;;;;;;;;4898077;29;20088;-63
2022/07/07 12:05:05;;;;;;;2.90;1.70;;;;;;;;;;4897364;29;20040;-62
2022/07/07 12:07:31;;;;;;;4.05;1.58;;;;;;;;;;4897597;29;20091;-62
2022/07/07 12:09:57;;;;;;;3.85;1.50;;;;;;;;;;4897498;29;20043;-68
2022/07/07 12:12:23;;;;;;;3.45;1.58;;;;;;;;;;4897587;29;20434;-69
2022/07/07 12:14:49;;;;;;;3.38;1.58;;;;;;;;;;4897158;29;20143;-69
2022/07/07 12:17:34;;;;;;;3.53;1.60;;;;;;;;;;4897554;29;20067;-62
2022/07/07 12:20:00;;;;;;;3.83;1.52;;;;;;;;;;4897378;29;20032;-65
2022/07/07 12:22:40;;;;;;;2.95;1.48;;;;;;;;;;4897369;29;20032;-69
2022/07/07 12:25:09;;;;;;;6.30;3.42;;;;;;;;;;4897540;29;20036;-62
2022/07/07 12:27:35;;;;;;;4.53;2.55;;;;;;;;;;4897186;29;20029;-69
2022/07/07 12:30:03;;;;;;;3.38;1.50;;;;;;;;;;4897299;29;20028;-69
2022/07/07 12:32:29;;;;;;;3.55;1.60;;;;;;;;;;4897173;29;20032;-62
2022/07/07 12:34:55;;;;;;;3.25;1.67;;;;;;;;;;4897121;29;20393;-61
2022/07/07 12:37:39;;;;;;;4.68;1.90;;;;;;;;;;4897160;29;20529;-62
2022/07/07 12:40:09;;;;;;;4.45;1.80;;;;;;;;;;4896974;29;20396;-69
2022/07/07 12:42:36;;;;;;;4.97;1.65;;;;;;;;;;4895277;29;20051;-62
2022/07/07 12:45:12;;;;;;;2.88;1.70;;;;;;;;;;4892815;29;20111;-64
2022/07/07 12:47:45;;;;;;;3.42;1.90;;;;;;;;;;4895807;29;20056;-70
2022/07/07 12:50:11;;;;;;;3.95;1.90;;;;;;;;;;4895453;29;20099;-67
2022/07/07 12:52:37;;;;;;;5.93;1.90;;;;;;;;;;4895611;29;20754;-68
2022/07/07 12:55:11;;;;;;;6.70;2.30;;;;;;;;;;4895427;29;20025;-70
2022/07/07 12:57:38;;;;;;;4.72;1.90;;;;;;;;;;4895514;29;20115;-69
2022/07/07 13:00:05;;;;;;;3.70;1.77;;;;;;;;;;4895572;29;20021;-69
2022/07/07 13:02:31;;;;;;;4.93;2.05;;;;;;;;;;4895277;29;20081;-70
2022/07/07 13:04:57;;;;;;;3.22;1.95;;;;;;;;;;4895394;29;20044;-71
2022/07/07 13:07:23;;;;;;;3.25;2.00;;;;;;;;;;4894989;29;20048;-69
2022/07/07 13:09:49;;;;;;;5.35;1.95;;;;;;;;;;4895353;29;20032;-69
2022/07/07 13:12:16;;;;;;;3.25;1.50;;;;;;;;;;4895105;29;20020;-70
2022/07/07 13:14:42;;;;;;;4.70;1.73;;;;;;;;;;4892344;29;20071;-70
2022/07/07 13:17:09;;;;;;;3.45;1.67;;;;;;;;;;4877500;29;20409;-69
2022/07/07 13:19:35;;;;;;;4.15;1.98;;;;;;;;;;4895275;29;20032;-70
2022/07/07 13:22:02;;;;;;;2.40;1.50;;;;;;;;;;4895462;29;20031;-69
2022/07/07 13:24:28;;;;;;;3.05;1.50;;;;;;;;;;4895066;29;20040;-67
2022/07/07 13:26:54;;;;;;;5.93;1.55;;;;;;;;;;4906004;29;20103;-70
2022/07/07 13:29:20;;;;;;;4.78;1.60;;;;;;;;;;4915140;29;20433;-70
2022/07/07 13:31:46;;;;;;;5.05;1.80;;;;;;;;;;4907373;29;20028;-68
2022/07/07 13:34:12;;;;;;;4.20;1.73;;;;;;;;;;4902991;29;20032;-64
2022/07/07 13:36:38;;;;;;;7.18;2.20;;;;;;;;;;4904794;29;20037;-69
2022/07/07 13:39:04;;;;;;;2.90;1.73;;;;;;;;;;4905295;29;20063;-69
2022/07/07 13:41:30;;;;;;;5.57;2.00;;;;;;;;;;4906377;29;20031;-71
2022/07/07 13:43:58;;;;;;;3.90;1.95;;;;;;;;;;4908608;29;20040;-70
2022/07/07 13:46:24;;;;;;;4.18;1.80;;;;;;;;;;4904620;29;20111;-69
2022/07/07 13:48:50;;;;;;;3.15;1.85;;;;;;;;;;4909873;29;20044;-68
2022/07/07 13:51:17;;;;;;;3.05;1.52;;;;;;;;;;4915032;29;20421;-62
2022/07/07 13:53:43;;;;;;;2.00;1.40;;;;;;;;;;4914869;29;20064;-68
2022/07/07 13:56:09;;;;;;;4.47;1.75;;;;;;;;;;4915122;29;20028;-64
2022/07/07 13:58:36;;;;;;;5.70;1.50;;;;;;;;;;4915113;29;20028;-62
2022/07/07 14:01:02;;;;;;;5.10;1.42;;;;;;;;;;4915015;29;20107;-63
2022/07/07 14:03:28;;;;;;;3.13;1.30;;;;;;;;;;4914647;29;20036;-62
2022/07/07 14:05:54;;;;;;;5.80;1.60;;;;;;;;;;4914897;29;20051;-69
2022/07/07 14:08:20;;;;;;;5.70;1.63;;;;;;;;;;4914881;29;20024;-68
2022/07/07 14:10:46;;;;;;;2.03;1.50;;;;;;;;;;4914979;29;20381;-65
2022/07/07 14:13:12;;;;;;;5.38;1.48;;;;;;;;;;4914569;29;20032;-67
2022/07/07 14:15:40;;;;;;;4.60;1.58;;;;;;;;;;4914378;29;20064;-69
2022/07/07 14:18:06;;;;;;;3.47;1.40;;;;;;;;;;4914843;29;20107;-70
2022/07/07 14:20:32;;;;;;;3.15;1.63;;;;;;;;;;4914986;29;20035;-67
2022/07/07 14:22:58;;;;;;;2.58;1.52;;;;;;;;;;4914884;29;20020;-70
2022/07/07 14:25:25;;;;;;;4.05;1.65;;;;;;;;;;4915020;29;20075;-66
2022/07/07 14:27:51;;;;;;;4.53;1.67;;;;;;;;;;4914763;29;20028;-67
2022/07/07 14:30:17;;;;;;;3.60;1.60;;;;;;;;;;4918224;29;20433;-70
2022/07/07 14:32:43;;;;;;;3.95;2.65;;;;;;;;;;4918550;29;20034;-72
2022/07/07 14:35:10;;;;;;;12.90;2.10;;;;;;;;;;4887852;29;20136;-70
2022/07/07 14:37:36;;;;;;;15.57;2.80;;;;;;;;;;4898604;29;20481;-62
2022/07/07 14:40:02;;;;;;;10.88;2.25;;;;;;;;;;4899267;29;20028;-62
2022/07/07 14:42:28;;;;;;;7.20;1.90;;;;;;;;;;4898893;29;20425;-69
2022/07/07 14:44:54;;;;;;;6.60;1.88;;;;;;;;;;4898962;29;20045;-62